Time;durP1;ratioP1;P1;durP2;ratioP2;P2;SDS_P1;SDS_P2;PMS_P1;PMS_P2;Temp;Humidity;BMP_temperature;BMP_pressure;BME280_temperature;BME280_humidity;BME280_pressure;Samples;Min_cycle;Max_cycle;Signal;HPM_P1;HPM_P2
2023/10/22 00:00:29;;;;;;;18.77;8.10;;;15.10;99.90;;;;;;4212531;28;20021;-59
2023/10/22 00:02:30;;;;;;;34.28;9.70;;;15.00;99.90;;;;;;4211255;28;20149;-59
2023/10/22 00:04:31;;;;;;;24.63;8.35;;;15.00;99.90;;;;;;4212411;28;20016;-57
2023/10/22 00:06:32;;;;;;;25.13;8.52;;;14.90;99.90;;;;;;4211176;28;20078;-59
2023/10/22 00:08:34;;;;;;;24.65;7.90;;;14.90;99.90;;;;;;4212525;28;20113;-59
2023/10/22 00:10:35;;;;;;;23.17;8.45;;;14.90;99.90;;;;;;4211134;28;20642;-59
2023/10/22 00:12:36;;;;;;;21.70;7.30;;;14.90;99.90;;;;;;4212170;28;20056;-59
2023/10/22 00:14:37;;;;;;;27.73;7.10;;;14.90;99.90;;;;;;4211519;28;20039;-60
2023/10/22 00:16:38;;;;;;;17.25;5.60;;;15.00;99.90;;;;;;4212108;28;20040;-60
2023/10/22 00:18:39;;;;;;;23.98;7.50;;;15.10;99.90;;;;;;4211379;28;20048;-60
2023/10/22 00:20:41;;;;;;;19.80;7.20;;;15.10;99.90;;;;;;4211462;28;20028;-60
2023/10/22 00:22:42;;;;;;;19.65;6.32;;;15.10;99.90;;;;;;4212020;28;20434;-60
2023/10/22 00:24:44;;;;;;;21.02;6.57;;;15.10;99.90;;;;;;4211427;28;20097;-60
2023/10/22 00:26:46;;;;;;;26.60;7.55;;;15.00;99.90;;;;;;4211962;28;20044;-60
2023/10/22 00:28:47;;;;;;;18.70;7.18;;;15.00;99.90;;;;;;4210988;28;20024;-59
2023/10/22 00:30:48;;;;;;;22.30;7.65;;;14.90;99.90;;;;;;4212393;28;20081;-61
2023/10/22 00:32:49;;;;;;;20.27;7.90;;;14.80;99.90;;;;;;4210810;28;20545;-61
2023/10/22 00:34:50;;;;;;;20.30;7.47;;;14.80;99.90;;;;;;4212391;28;20036;-60
2023/10/22 00:36:51;;;;;;;19.70;7.07;;;14.70;99.90;;;;;;4210777;28;20028;-59
2023/10/22 00:38:52;;;;;;;20.52;7.10;;;14.70;99.90;;;;;;4212077;28;20089;-59
2023/10/22 00:40:54;;;;;;;20.85;7.35;;;14.70;99.90;;;;;;4210761;28;20113;-60
2023/10/22 00:42:55;;;;;;;22.75;7.50;;;14.70;99.90;;;;;;4211883;28;20101;-61
2023/10/22 00:44:57;;;;;;;20.42;6.50;;;14.70;99.90;;;;;;4211020;28;20426;-59
2023/10/22 00:46:58;;;;;;;19.40;8.13;;;14.70;99.90;;;;;;4211488;28;20020;-60
2023/10/22 00:49:00;;;;;;;24.92;7.38;;;14.70;99.90;;;;;;4210851;28;20036;-59
2023/10/22 00:51:02;;;;;;;18.75;7.13;;;14.70;99.90;;;;;;4211241;28;20031;-59
2023/10/22 00:53:03;;;;;;;21.63;7.90;;;14.70;99.90;;;;;;4210995;28;20028;-61
2023/10/22 00:55:05;;;;;;;21.90;7.13;;;14.60;99.90;;;;;;4211117;28;20821;-59
2023/10/22 00:57:07;;;;;;;22.92;7.75;;;14.60;99.90;;;;;;4211303;28;20097;-60
2023/10/22 00:59:11;;;;;;;20.35;7.13;;;14.60;99.90;;;;;;4210901;28;20036;-59
2023/10/22 01:01:14;;;;;;;22.90;8.00;;;14.50;99.90;;;;;;4211658;28;20093;-59
2023/10/22 01:03:16;;;;;;;20.85;7.95;;;14.50;99.90;;;;;;4210827;28;20031;-61
2023/10/22 01:05:17;;;;;;;21.48;7.15;;;14.60;99.90;;;;;;4211595;28;20074;-58
2023/10/22 01:07:19;;;;;;;26.85;8.23;;;14.50;99.90;;;;;;4210328;28;20036;-60
2023/10/22 01:09:20;;;;;;;20.35;7.47;;;14.60;99.90;;;;;;4211554;28;20040;-61
2023/10/22 01:11:22;;;;;;;22.45;8.18;;;14.60;99.90;;;;;;4210546;28;20093;-60
2023/10/22 01:13:23;;;;;;;14.57;5.63;;;14.60;99.90;;;;;;4211534;28;20035;-60
2023/10/22 01:15:24;;;;;;;21.58;7.70;;;14.60;99.90;;;;;;4210401;28;20493;-58
2023/10/22 01:17:25;;;;;;;16.60;6.75;;;14.60;99.90;;;;;;4211280;28;20173;-61
2023/10/22 01:19:27;;;;;;;23.75;7.50;;;14.50;99.90;;;;;;4210622;28;20177;-60
2023/10/22 01:21:29;;;;;;;22.08;5.90;;;14.40;99.90;;;;;;4211211;28;20102;-60
2023/10/22 01:23:39;;;;;;;15.15;6.45;;;14.40;99.90;;;;;;4210320;28;20530;-60
2023/10/22 01:25:41;;;;;;;24.10;7.63;;;14.40;99.90;;;;;;4211170;28;20101;-60
2023/10/22 01:27:43;;;;;;;25.77;8.85;;;14.30;99.90;;;;;;4210838;28;20419;-59
2023/10/22 01:29:44;;;;;;;22.30;7.40;;;14.20;99.90;;;;;;4210373;28;20028;-59
2023/10/22 01:31:46;;;;;;;18.02;8.02;;;14.20;99.90;;;;;;4210977;28;20469;-60
2023/10/22 01:33:47;;;;;;;23.48;8.48;;;14.10;99.90;;;;;;4209978;28;20040;-59
2023/10/22 01:35:48;;;;;;;21.15;8.23;;;14.10;99.90;;;;;;4211232;28;20553;-60
2023/10/22 01:37:50;;;;;;;22.00;8.63;;;14.10;99.90;;;;;;4209898;28;20596;-59
2023/10/22 01:39:52;;;;;;;23.73;8.20;;;14.10;99.90;;;;;;4211002;28;20085;-61
2023/10/22 01:41:53;;;;;;;25.38;8.23;;;14.10;99.90;;;;;;4209875;28;20073;-60
2023/10/22 01:43:56;;;;;;;31.02;9.52;;;14.10;99.90;;;;;;4211403;28;20086;-60
2023/10/22 01:45:57;;;;;;;25.48;8.30;;;14.20;99.90;;;;;;4208854;28;20032;-58
2023/10/22 01:47:58;;;;;;;21.70;7.65;;;14.20;99.90;;;;;;4210959;28;20439;-60
2023/10/22 01:49:59;;;;;;;23.63;8.48;;;14.20;99.90;;;;;;4209910;28;20032;-59
2023/10/22 01:52:00;;;;;;;29.38;8.07;;;14.30;99.90;;;;;;4211134;28;20074;-61
2023/10/22 01:54:01;;;;;;;15.85;6.20;;;14.30;99.90;;;;;;4210267;28;20450;-60
2023/10/22 01:56:03;;;;;;;22.95;7.28;;;14.40;99.90;;;;;;4211381;28;20172;-61
2023/10/22 01:58:05;;;;;;;22.13;7.80;;;14.50;99.90;;;;;;4210240;28;20048;-60
2023/10/22 02:00:06;;;;;;;13.93;5.78;;;14.50;99.90;;;;;;4210408;28;20032;-60
2023/10/22 02:02:08;;;;;;;23.92;7.20;;;14.50;99.90;;;;;;4210066;28;20122;-57
2023/10/22 02:04:09;;;;;;;24.50;7.32;;;14.60;99.90;;;;;;4209863;28;20085;-60
2023/10/22 02:06:12;;;;;;;29.05;8.15;;;14.60;99.90;;;;;;4210782;28;20482;-59
2023/10/22 02:08:13;;;;;;;17.38;7.38;;;14.60;99.90;;;;;;4211112;28;20048;-58
2023/10/22 02:10:14;;;;;;;15.13;6.78;;;14.70;99.90;;;;;;4214177;28;20085;-58
2023/10/22 02:12:16;;;;;;;22.38;8.00;;;14.60;99.90;;;;;;4213303;28;20457;-60
2023/10/22 02:14:17;;;;;;;22.73;7.35;;;14.60;99.90;;;;;;4214329;28;20040;-59
2023/10/22 02:16:19;;;;;;;18.98;6.65;;;14.50;99.90;;;;;;4213110;28;20040;-58
2023/10/22 02:18:20;;;;;;;18.15;6.30;;;14.50;99.90;;;;;;4214270;28;20040;-59
2023/10/22 02:20:21;;;;;;;21.83;7.53;;;14.60;99.90;;;;;;4212808;28;20077;-58
2023/10/22 02:22:23;;;;;;;26.10;6.97;;;14.60;99.90;;;;;;4213925;28;20089;-58
2023/10/22 02:24:24;;;;;;;16.67;5.47;;;14.60;99.90;;;;;;4212919;28;20117;-59
2023/10/22 02:26:25;;;;;;;23.20;7.10;;;14.60;99.90;;;;;;4214186;28;20036;-58
2023/10/22 02:28:26;;;;;;;22.52;6.93;;;14.60;99.90;;;;;;4213550;28;20345;-59
2023/10/22 02:30:27;;;;;;;18.67;7.22;;;14.70;99.90;;;;;;4213598;28;20036;-58
2023/10/22 02:32:28;;;;;;;18.75;6.80;;;14.60;99.90;;;;;;4213465;28;20476;-59
2023/10/22 02:34:30;;;;;;;17.88;5.43;;;14.60;99.90;;;;;;4213108;28;20032;-59
2023/10/22 02:36:31;;;;;;;15.90;6.20;;;14.60;99.90;;;;;;4214204;28;20379;-59
2023/10/22 02:38:36;;;;;;;21.55;6.47;;;14.60;99.90;;;;;;4212647;28;20032;-59
2023/10/22 02:40:37;;;;;;;18.95;6.75;;;14.70;99.90;;;;;;4214069;28;20032;-59
2023/10/22 02:42:38;;;;;;;20.98;5.55;;;14.70;99.90;;;;;;4212827;28;20028;-59
2023/10/22 02:44:39;;;;;;;15.32;6.15;;;14.70;99.90;;;;;;4213926;28;20032;-59
2023/10/22 02:46:40;;;;;;;15.18;5.55;;;14.70;99.90;;;;;;4212697;28;20057;-59
2023/10/22 02:48:42;;;;;;;18.88;6.28;;;14.80;99.90;;;;;;4213961;28;20054;-60
2023/10/22 02:50:43;;;;;;;20.65;5.05;;;14.80;99.90;;;;;;4212628;28;20082;-59
2023/10/22 02:52:44;;;;;;;17.17;4.82;;;15.00;99.90;;;;;;4213832;28;20036;-59
2023/10/22 02:54:45;;;;;;;20.75;5.45;;;15.00;99.90;;;;;;4212787;28;20078;-60
2023/10/22 02:56:46;;;;;;;18.63;4.90;;;15.00;99.90;;;;;;4213758;28;20028;-59
2023/10/22 02:58:47;;;;;;;14.15;5.15;;;15.10;99.90;;;;;;4212640;28;20101;-58
2023/10/22 03:00:49;;;;;;;19.08;5.05;;;15.10;99.90;;;;;;4213275;28;20430;-61
2023/10/22 03:02:50;;;;;;;15.50;5.90;;;15.10;99.90;;;;;;4213404;28;20036;-61
2023/10/22 03:04:51;;;;;;;21.30;6.57;;;15.00;99.90;;;;;;4212636;28;20024;-60
2023/10/22 03:06:53;;;;;;;13.77;5.35;;;15.00;99.90;;;;;;4213132;28;20032;-60
2023/10/22 03:08:54;;;;;;;16.55;5.97;;;15.00;99.90;;;;;;4212380;28;20097;-61
2023/10/22 03:10:55;;;;;;;17.08;5.50;;;15.00;99.90;;;;;;4213396;28;20433;-60
2023/10/22 03:12:58;;;;;;;17.17;5.15;;;14.90;99.90;;;;;;4212024;28;20825;-59
2023/10/22 03:14:59;;;;;;;14.43;5.35;;;15.00;99.90;;;;;;4213098;28;20087;-59
2023/10/22 03:17:00;;;;;;;14.75;5.80;;;14.90;99.90;;;;;;4212063;28;20024;-59
2023/10/22 03:19:01;;;;;;;17.98;5.40;;;14.90;99.90;;;;;;4213090;28;20073;-59
2023/10/22 03:21:10;;;;;;;15.50;5.18;;;14.90;99.90;;;;;;4212159;28;20044;-59
2023/10/22 03:23:11;;;;;;;14.75;6.10;;;15.00;99.90;;;;;;4213045;28;20020;-59
2023/10/22 03:25:12;;;;;;;21.90;5.28;;;15.00;99.90;;;;;;4212018;28;20470;-59
2023/10/22 03:27:14;;;;;;;17.10;4.95;;;15.00;99.90;;;;;;4213169;28;20043;-59
2023/10/22 03:29:15;;;;;;;16.65;5.25;;;15.10;99.90;;;;;;4212150;28;20044;-59
2023/10/22 03:31:17;;;;;;;13.38;4.90;;;15.10;99.90;;;;;;4212572;28;20032;-59
2023/10/22 03:33:18;;;;;;;20.55;5.13;;;15.00;99.90;;;;;;4212346;28;20028;-58
2023/10/22 03:35:19;;;;;;;21.75;5.47;;;15.00;99.90;;;;;;4212433;28;20545;-60
2023/10/22 03:37:20;;;;;;;19.42;5.38;;;15.00;99.90;;;;;;4212412;28;20074;-60
2023/10/22 03:39:21;;;;;;;15.38;5.28;;;14.90;99.90;;;;;;4211893;28;20040;-60
2023/10/22 03:41:22;;;;;;;25.40;5.32;;;14.90;99.90;;;;;;4212856;28;20028;-61
2023/10/22 03:43:24;;;;;;;13.43;5.43;;;14.90;99.90;;;;;;4210509;28;20032;-61
2023/10/22 03:45:25;;;;;;;18.40;6.30;;;14.90;99.90;;;;;;4213061;28;20044;-59
2023/10/22 03:47:26;;;;;;;24.23;6.75;;;15.00;99.90;;;;;;4211882;28;20035;-60
2023/10/22 03:49:27;;;;;;;25.85;7.32;;;15.10;99.90;;;;;;4212870;28;20036;-60
2023/10/22 03:51:29;;;;;;;15.98;4.68;;;15.00;99.90;;;;;;4211902;28;20086;-61
2023/10/22 03:53:31;;;;;;;15.75;5.60;;;15.10;99.90;;;;;;4213044;28;20040;-60
2023/10/22 03:55:32;;;;;;;22.45;6.90;;;15.10;99.90;;;;;;4212309;28;20044;-60
2023/10/22 03:57:33;;;;;;;13.55;4.20;;;15.10;99.90;;;;;;4212736;28;20024;-61
2023/10/22 03:59:35;;;;;;;19.50;5.72;;;15.10;99.90;;;;;;4211639;28;20035;-59
2023/10/22 04:01:36;;;;;;;17.13;4.97;;;15.10;99.90;;;;;;4212290;28;20016;-61
2023/10/22 04:03:37;;;;;;;21.38;5.40;;;15.10;99.90;;;;;;4211784;28;20036;-60
2023/10/22 04:05:39;;;;;;;16.52;5.15;;;15.10;99.90;;;;;;4212196;28;20040;-59
2023/10/22 04:07:40;;;;;;;15.93;5.10;;;15.10;99.90;;;;;;4211968;28;20040;-60
2023/10/22 04:09:41;;;;;;;17.45;5.78;;;15.10;99.90;;;;;;4211391;28;20066;-60
2023/10/22 04:11:42;;;;;;;22.27;6.20;;;15.20;99.90;;;;;;4212240;28;20395;-60
2023/10/22 04:13:43;;;;;;;21.58;7.20;;;15.20;99.90;;;;;;4211162;28;20040;-59
2023/10/22 04:15:45;;;;;;;18.77;7.43;;;15.20;99.90;;;;;;4222503;28;20020;-60
2023/10/22 04:17:47;;;;;;;23.77;8.52;;;15.20;99.90;;;;;;4228301;28;20552;-61
2023/10/22 04:19:48;;;;;;;20.30;8.73;;;15.30;99.90;;;;;;4229136;28;20125;-58
2023/10/22 04:21:49;;;;;;;17.95;6.18;;;15.30;99.90;;;;;;4227868;28;20032;-60
2023/10/22 04:23:51;;;;;;;18.80;5.45;;;15.40;99.90;;;;;;4229114;28;20035;-60
2023/10/22 04:25:52;;;;;;;19.75;4.93;;;15.40;99.90;;;;;;4228168;28;20035;-60
2023/10/22 04:27:53;;;;;;;14.00;4.35;;;15.40;99.90;;;;;;4229187;28;20383;-60
2023/10/22 04:29:55;;;;;;;16.92;4.68;;;15.40;99.90;;;;;;4227953;28;20019;-59
2023/10/22 04:31:57;;;;;;;15.98;4.50;;;15.50;99.90;;;;;;4228593;27;20453;-60
2023/10/22 04:33:58;;;;;;;12.20;4.63;;;15.50;99.90;;;;;;4228306;28;20027;-60
2023/10/22 04:35:59;;;;;;;14.80;4.40;;;15.50;99.90;;;;;;4228294;28;20088;-60
2023/10/22 04:38:01;;;;;;;18.25;5.00;;;15.50;99.90;;;;;;4228320;28;20163;-61
2023/10/22 04:40:03;;;;;;;13.70;5.15;;;15.50;99.90;;;;;;4227910;28;20032;-60
2023/10/22 04:42:04;;;;;;;18.55;5.65;;;15.50;99.90;;;;;;4228478;28;20027;-60
2023/10/22 04:44:06;;;;;;;19.80;5.45;;;15.50;99.90;;;;;;4227486;28;20020;-61
2023/10/22 04:46:07;;;;;;;18.23;4.82;;;15.50;99.90;;;;;;4228721;28;20077;-60
2023/10/22 04:48:08;;;;;;;18.15;4.80;;;15.40;99.90;;;;;;4227725;28;20623;-60
2023/10/22 04:50:09;;;;;;;14.45;4.25;;;15.40;99.90;;;;;;4228827;28;20101;-60
2023/10/22 04:52:17;;;;;;;19.40;5.72;;;15.40;99.90;;;;;;4227539;28;20027;-60
2023/10/22 04:54:18;;;;;;;22.80;5.43;;;15.30;99.90;;;;;;4228063;28;20044;-60
2023/10/22 04:56:19;;;;;;;17.65;5.78;;;15.20;99.90;;;;;;4227665;28;20500;-60
2023/10/22 04:58:20;;;;;;;20.52;5.90;;;15.20;99.90;;;;;;4228421;28;20035;-61
2023/10/22 05:00:21;;;;;;;17.00;5.75;;;15.10;99.90;;;;;;4227096;28;20027;-59
2023/10/22 05:02:23;;;;;;;22.67;5.60;;;15.10;99.90;;;;;;4228480;28;20143;-59
2023/10/22 05:04:24;;;;;;;19.35;5.47;;;15.10;99.90;;;;;;4227231;28;20015;-60
2023/10/22 05:06:25;;;;;;;17.83;6.15;;;15.00;99.90;;;;;;4228305;27;20044;-61
2023/10/22 05:08:26;;;;;;;19.75;6.20;;;14.90;99.90;;;;;;4227597;27;20511;-59
2023/10/22 05:10:27;;;;;;;21.35;6.65;;;14.90;99.90;;;;;;4227886;28;20043;-59
2023/10/22 05:12:29;;;;;;;17.27;6.22;;;14.90;99.90;;;;;;4228164;28;20361;-59
2023/10/22 05:14:30;;;;;;;17.33;5.32;;;14.90;99.90;;;;;;4227183;28;20360;-61
2023/10/22 05:16:33;;;;;;;18.83;6.25;;;14.90;99.90;;;;;;4228286;27;20027;-59
2023/10/22 05:18:34;;;;;;;16.38;5.82;;;14.90;99.90;;;;;;4226939;27;20770;-61
2023/10/22 05:20:35;;;;;;;16.20;5.97;;;14.80;99.90;;;;;;4228196;28;20024;-59
2023/10/22 05:22:36;;;;;;;16.08;5.05;;;14.80;99.90;;;;;;4226999;28;20803;-60
2023/10/22 05:24:37;;;;;;;16.02;5.47;;;14.90;99.90;;;;;;4227848;28;20051;-59
2023/10/22 05:26:39;;;;;;;17.42;5.72;;;14.80;99.90;;;;;;4227443;28;20031;-60
2023/10/22 05:28:41;;;;;;;19.48;6.57;;;14.90;99.90;;;;;;4228458;28;20047;-58
2023/10/22 05:30:42;;;;;;;20.38;6.40;;;14.90;99.90;;;;;;4226714;28;20492;-58
2023/10/22 05:32:43;;;;;;;17.40;6.90;;;14.90;99.90;;;;;;4228101;28;20027;-60
2023/10/22 05:34:44;;;;;;;19.02;5.72;;;14.90;99.90;;;;;;4227058;28;20028;-58
2023/10/22 05:36:45;;;;;;;25.15;7.68;;;14.90;99.90;;;;;;4227701;28;20049;-61
2023/10/22 05:38:50;;;;;;;18.77;5.65;;;14.90;99.90;;;;;;4226905;28;20043;-59
2023/10/22 05:40:51;;;;;;;16.15;5.97;;;14.90;99.90;;;;;;4227437;28;20112;-61
2023/10/22 05:42:52;;;;;;;17.52;5.32;;;14.90;99.90;;;;;;4226747;28;20024;-60
2023/10/22 05:44:53;;;;;;;26.13;5.63;;;14.90;99.90;;;;;;4227027;28;20397;-59
2023/10/22 05:46:54;;;;;;;23.73;8.35;;;14.90;99.90;;;;;;4227654;28;20032;-59
2023/10/22 05:48:55;;;;;;;31.48;9.02;;;15.00;99.90;;;;;;4226668;28;20092;-55
2023/10/22 05:50:57;;;;;;;23.77;7.93;;;15.00;99.90;;;;;;4228041;28;20112;-61
2023/10/22 05:52:58;;;;;;;24.00;7.32;;;15.10;99.90;;;;;;4226562;28;20069;-60
2023/10/22 05:54:59;;;;;;;20.65;6.95;;;15.10;99.90;;;;;;4227479;28;20445;-60
2023/10/22 05:57:00;;;;;;;19.42;6.68;;;15.20;99.90;;;;;;4226612;28;20069;-59
2023/10/22 05:59:04;;;;;;;24.02;7.25;;;15.20;99.90;;;;;;4227530;28;20418;-59
2023/10/22 06:01:08;;;;;;;19.88;8.20;;;15.30;99.90;;;;;;4226488;28;20040;-60
2023/10/22 06:03:09;;;;;;;19.33;6.75;;;15.30;99.90;;;;;;4227845;28;20606;-60
2023/10/22 06:05:12;;;;;;;15.77;6.00;;;15.30;99.90;;;;;;4227023;28;20065;-61
2023/10/22 06:07:13;;;;;;;14.20;5.40;;;15.30;99.90;;;;;;4227708;28;20039;-59
2023/10/22 06:09:14;;;;;;;26.98;5.82;;;15.30;99.90;;;;;;4226625;28;20016;-58
2023/10/22 06:11:15;;;;;;;11.90;5.32;;;15.40;99.90;;;;;;4227529;28;20540;-59
2023/10/22 06:13:16;;;;;;;17.00;5.03;;;15.50;99.90;;;;;;4227324;28;20430;-60
2023/10/22 06:15:18;;;;;;;10.52;5.22;;;15.60;99.90;;;;;;4226342;28;20043;-59
2023/10/22 06:17:19;;;;;;;11.50;4.07;;;15.70;99.90;;;;;;4227203;28;20430;-60
2023/10/22 06:19:20;;;;;;;18.00;4.95;;;15.80;99.90;;;;;;4226479;28;20051;-61
2023/10/22 06:21:22;;;;;;;12.80;4.53;;;16.00;99.90;;;;;;4227435;28;20495;-60
2023/10/22 06:23:23;;;;;;;17.88;4.50;;;16.20;99.90;;;;;;4226133;28;20099;-60
2023/10/22 06:25:24;;;;;;;14.77;4.35;;;16.50;99.90;;;;;;4227681;28;20047;-61
2023/10/22 06:27:25;;;;;;;16.63;4.05;;;16.70;99.90;;;;;;4226192;28;20100;-58
2023/10/22 06:29:26;;;;;;;12.73;3.95;;;17.10;99.90;;;;;;4227257;28;20033;-60
2023/10/22 06:31:27;;;;;;;13.73;4.68;;;17.30;99.90;;;;;;4224412;28;20039;-59
2023/10/22 06:33:29;;;;;;;12.23;4.90;;;17.50;99.90;;;;;;4227330;28;20089;-60
2023/10/22 06:35:30;;;;;;;13.35;4.47;;;17.60;99.90;;;;;;4226481;28;20454;-60
2023/10/22 06:37:31;;;;;;;17.58;6.07;;;17.70;99.90;;;;;;4227289;28;20036;-61
2023/10/22 06:39:32;;;;;;;22.20;7.90;;;17.80;99.90;;;;;;4226181;28;20361;-60
2023/10/22 06:41:34;;;;;;;15.98;6.13;;;17.70;99.90;;;;;;4227008;28;20097;-57
2023/10/22 06:43:35;;;;;;;20.85;6.25;;;17.50;99.90;;;;;;4226552;28;20069;-60
2023/10/22 06:45:36;;;;;;;24.30;6.45;;;17.50;99.90;;;;;;4226430;28;20040;-61
2023/10/22 06:47:38;;;;;;;16.38;6.00;;;17.40;99.90;;;;;;4227184;28;20163;-61
2023/10/22 06:49:39;;;;;;;16.08;5.85;;;17.40;99.90;;;;;;4226315;28;20088;-61
2023/10/22 06:51:40;;;;;;;16.83;6.45;;;17.40;99.90;;;;;;4227233;28;20080;-59
2023/10/22 06:53:43;;;;;;;21.02;7.00;;;17.40;99.90;;;;;;4226196;28;20069;-61
2023/10/22 06:55:44;;;;;;;17.55;6.72;;;17.30;99.90;;;;;;4230682;28;20072;-60
2023/10/22 06:57:46;;;;;;;17.25;7.93;;;17.20;99.90;;;;;;4229115;28;20471;-55
2023/10/22 06:59:48;;;;;;;24.15;7.68;;;17.10;99.90;;;;;;4230142;28;20549;-59
2023/10/22 07:01:49;;;;;;;15.18;7.13;;;17.00;99.90;;;;;;4229352;27;20077;-61
2023/10/22 07:03:50;;;;;;;16.38;7.47;;;17.10;99.90;;;;;;4230260;28;20072;-59
2023/10/22 07:05:51;;;;;;;17.42;6.43;;;17.10;99.90;;;;;;4229047;28;20035;-60
2023/10/22 07:07:52;;;;;;;16.77;6.18;;;17.10;99.90;;;;;;4230124;27;20097;-60
2023/10/22 07:09:53;;;;;;;13.93;5.18;;;17.00;99.90;;;;;;4228711;28;20061;-60
2023/10/22 07:11:55;;;;;;;17.30;5.60;;;17.10;99.90;;;;;;4229662;28;20065;-60
2023/10/22 07:13:56;;;;;;;13.88;5.40;;;17.10;99.90;;;;;;4229681;27;20377;-60
2023/10/22 07:15:57;;;;;;;13.73;4.03;;;17.10;99.90;;;;;;4229561;28;20112;-61
2023/10/22 07:17:58;;;;;;;18.13;5.22;;;17.10;99.90;;;;;;4229592;28;20031;-61
2023/10/22 07:19:59;;;;;;;18.00;6.05;;;17.20;99.90;;;;;;4228718;28;20120;-61
2023/10/22 07:22:01;;;;;;;12.93;4.47;;;17.30;99.90;;;;;;4228090;28;20027;-60
2023/10/22 07:24:02;;;;;;;8.02;3.72;;;17.30;99.90;;;;;;4228245;28;20039;-62
2023/10/22 07:26:04;;;;;;;8.13;3.47;;;17.40;99.90;;;;;;4230382;28;20180;-60
2023/10/22 07:28:05;;;;;;;8.73;3.13;;;17.50;99.90;;;;;;4228921;28;20088;-61
2023/10/22 07:30:07;;;;;;;11.10;4.10;;;17.70;99.90;;;;;;4230098;27;20036;-61
2023/10/22 07:32:10;;;;;;;12.77;3.58;;;17.80;99.90;;;;;;4228545;28;20093;-61
2023/10/22 07:34:11;;;;;;;10.45;4.05;;;17.90;99.90;;;;;;4229824;28;20035;-61
2023/10/22 07:36:12;;;;;;;8.65;2.45;;;17.90;99.90;;;;;;4228428;28;20073;-60
2023/10/22 07:38:13;;;;;;;6.07;2.38;;;18.00;99.90;;;;;;4229302;28;20077;-59
2023/10/22 07:40:17;;;;;;;7.45;2.60;;;18.30;99.90;;;;;;4228074;28;20047;-60
2023/10/22 07:42:18;;;;;;;9.15;3.17;;;18.40;99.90;;;;;;4229178;28;20039;-59
2023/10/22 07:44:19;;;;;;;10.25;2.40;;;18.40;99.90;;;;;;4228354;28;20024;-61
2023/10/22 07:46:20;;;;;;;10.57;3.30;;;18.50;99.90;;;;;;4228894;27;20453;-60
2023/10/22 07:48:21;;;;;;;11.93;3.22;;;18.60;99.90;;;;;;4228556;28;20027;-61
2023/10/22 07:50:23;;;;;;;13.30;4.20;;;18.60;99.90;;;;;;4228494;28;20446;-60
2023/10/22 07:52:24;;;;;;;8.60;3.22;;;18.60;99.90;;;;;;4229236;27;20132;-60
2023/10/22 07:54:25;;;;;;;12.43;4.18;;;18.60;99.90;;;;;;4227904;27;20096;-60
2023/10/22 07:56:26;;;;;;;12.27;3.17;;;18.60;99.90;;;;;;4229820;27;20387;-59
2023/10/22 07:58:27;;;;;;;5.15;2.65;;;18.60;99.90;;;;;;4228117;27;20027;-60
2023/10/22 08:00:28;;;;;;;8.55;2.72;;;18.70;99.90;;;;;;4228955;28;20052;-60
2023/10/22 08:02:29;;;;;;;12.05;3.10;;;18.70;99.90;;;;;;4227766;28;20415;-60
2023/10/22 08:04:30;;;;;;;10.98;3.05;;;18.80;99.90;;;;;;4229195;28;20043;-59
2023/10/22 08:06:31;;;;;;;11.85;3.50;;;18.90;99.90;;;;;;4227028;28;20035;-60
2023/10/22 08:08:33;;;;;;;12.82;3.30;;;18.90;99.90;;;;;;4228984;27;20081;-60
2023/10/22 08:10:35;;;;;;;12.98;2.97;;;19.00;99.90;;;;;;4227966;28;20044;-61
2023/10/22 08:12:36;;;;;;;9.02;2.80;;;19.00;99.90;;;;;;4228855;28;20081;-60
2023/10/22 08:14:37;;;;;;;12.82;3.60;;;19.00;99.90;;;;;;4228325;27;20061;-59
2023/10/22 08:16:38;;;;;;;7.65;3.55;;;19.10;99.90;;;;;;4228616;28;20035;-61
2023/10/22 08:18:41;;;;;;;12.27;3.35;;;19.20;99.90;;;;;;4228620;27;20032;-60
2023/10/22 08:20:42;;;;;;;6.22;1.98;;;19.30;99.90;;;;;;4228273;28;20092;-60
2023/10/22 08:22:43;;;;;;;13.30;2.97;;;19.50;99.90;;;;;;4228633;28;20032;-59
2023/10/22 08:24:50;;;;;;;13.32;2.55;;;19.80;99.90;;;;;;4227395;28;20052;-59
2023/10/22 08:26:51;;;;;;;10.02;2.50;;;20.10;99.90;;;;;;4229314;28;20039;-60
2023/10/22 08:28:52;;;;;;;16.05;3.58;;;20.60;99.90;;;;;;4227599;28;20057;-60
2023/10/22 08:30:53;;;;;;;6.53;2.65;;;21.20;99.90;;;;;;4229100;27;20537;-60
2023/10/22 08:32:54;;;;;;;5.65;2.22;;;21.50;99.90;;;;;;4227729;27;20039;-60
2023/10/22 08:34:56;;;;;;;6.45;2.10;;;21.90;99.90;;;;;;4229006;28;20024;-60
2023/10/22 08:36:57;;;;;;;7.90;2.03;;;22.40;99.90;;;;;;4227693;28;20024;-61
2023/10/22 08:38:59;;;;;;;9.25;1.98;;;22.80;99.90;;;;;;4228499;28;20027;-60
2023/10/22 08:41:06;;;;;;;8.45;1.83;;;23.10;99.50;;;;;;4227784;27;20096;-60
2023/10/22 08:43:16;;;;;;;6.93;1.75;;;23.20;99.00;;;;;;4228687;28;20176;-61
2023/10/22 08:45:18;;;;;;;13.15;1.58;;;23.50;97.90;;;;;;4227455;28;20077;-60
2023/10/22 08:47:19;;;;;;;4.28;1.48;;;23.60;97.80;;;;;;4228650;27;20065;-60
2023/10/22 08:49:22;;;;;;;8.50;2.00;;;23.60;97.30;;;;;;4227585;28;20047;-61
2023/10/22 08:51:23;;;;;;;6.38;2.00;;;23.60;97.30;;;;;;4228120;28;20044;-58
2023/10/22 08:53:24;;;;;;;6.38;2.15;;;23.60;97.20;;;;;;4227725;28;20559;-60
2023/10/22 08:55:28;;;;;;;7.82;1.50;;;23.80;96.80;;;;;;4227652;28;20379;-61
2023/10/22 08:57:30;;;;;;;5.53;1.70;;;24.20;96.20;;;;;;4228883;28;20036;-60
2023/10/22 08:59:34;;;;;;;5.25;1.67;;;24.60;95.60;;;;;;4227072;28;20128;-59
2023/10/22 09:01:36;;;;;;;8.45;2.03;;;25.00;95.00;;;;;;4228044;28;20442;-58
2023/10/22 09:03:37;;;;;;;9.60;1.95;;;25.20;94.40;;;;;;4227335;27;20031;-59
2023/10/22 09:05:39;;;;;;;11.50;1.65;;;25.10;94.10;;;;;;4228422;27;20492;-58
2023/10/22 09:07:51;;;;;;;4.63;1.60;;;24.80;93.90;;;;;;4227061;28;20023;-59
2023/10/22 09:09:52;;;;;;;6.85;1.27;;;25.00;93.40;;;;;;4228080;28;20039;-60
2023/10/22 09:11:58;;;;;;;7.85;1.38;;;24.90;93.60;;;;;;4227008;27;20445;-60
2023/10/22 09:13:59;;;;;;;6.32;1.20;;;24.70;93.30;;;;;;4227814;28;20027;-59
2023/10/22 09:16:01;;;;;;;7.18;1.50;;;24.60;93.00;;;;;;4226836;28;20028;-60
2023/10/22 09:18:02;;;;;;;6.57;1.25;;;24.20;93.10;;;;;;4228068;28;20416;-61
2023/10/22 09:20:21;;;;;;;6.82;1.95;;;23.90;93.20;;;;;;4226328;28;20048;-60
2023/10/22 09:22:26;;;;;;;6.32;1.50;;;23.90;92.70;;;;;;4227687;28;20016;-60
2023/10/22 09:24:27;;;;;;;4.15;1.10;;;24.30;93.00;;;;;;4226731;27;20546;-60
2023/10/22 09:26:49;;;;;;;7.47;1.58;;;24.50;92.90;;;;;;4228197;28;20537;-60
2023/10/22 09:29:04;;;;;;;7.63;1.30;;;24.40;91.90;;;;;;4226855;28;20088;-60
2023/10/22 09:31:05;;;;;;;3.72;0.77;;;24.50;92.40;;;;;;4227659;28;20023;-60
2023/10/22 09:33:08;;;;;;;4.82;1.02;;;24.60;92.60;;;;;;4226622;28;20039;-60
2023/10/22 09:35:13;;;;;;;5.30;0.98;;;24.70;92.20;;;;;;4226525;28;20434;-60
2023/10/22 09:37:15;;;;;;;4.20;1.00;;;24.70;92.00;;;;;;4226500;28;20019;-61
2023/10/22 09:39:35;;;;;;;2.55;0.52;;;24.60;92.00;;;;;;4227629;28;20421;-60
2023/10/22 09:41:36;;;;;;;;;;;24.60;91.00;;;;;;4227011;28;20130;-60
2023/10/22 09:43:38;;;;;;;1.45;0.40;;;24.60;90.50;;;;;;4227688;28;19903;-59
2023/10/22 09:45:40;;;;;;;2.72;0.55;;;24.60;91.90;;;;;;4226641;27;20100;-60
2023/10/22 09:47:43;;;;;;;7.68;2.22;;;24.60;91.60;;;;;;4227333;28;20537;-59
2023/10/22 09:49:49;;;;;;;3.10;1.20;;;24.50;91.40;;;;;;4226784;28;20027;-60
2023/10/22 09:51:51;;;;;;;2.70;0.60;;;24.60;91.30;;;;;;4226973;28;20121;-61
2023/10/22 09:53:53;;;;;;;5.43;1.00;;;24.60;91.20;;;;;;4227128;28;20032;-58
2023/10/22 09:55:56;;;;;;;5.22;1.13;;;24.50;91.20;;;;;;4226894;28;20088;-61
2023/10/22 09:57:58;;;;;;;5.15;0.80;;;24.50;91.10;;;;;;4227911;28;20047;-60
2023/10/22 10:00:07;;;;;;;2.53;0.70;;;24.50;91.00;;;;;;4226362;28;20028;-61
2023/10/22 10:02:15;;;;;;;3.30;0.50;;;24.50;90.80;;;;;;4227271;28;20032;-60
2023/10/22 10:04:19;;;;;;;2.75;0.73;;;24.50;90.50;;;;;;4226345;28;20099;-60
2023/10/22 10:06:22;;;;;;;2.70;0.57;;;24.40;90.60;;;;;;4227983;28;20453;-60
2023/10/22 10:08:24;;;;;;;3.13;0.57;;;24.20;90.50;;;;;;4226218;28;20020;-60
2023/10/22 10:10:25;;;;;;;2.90;0.60;;;24.30;90.70;;;;;;4227326;28;20031;-61
2023/10/22 10:12:28;;;;;;;2.85;0.40;;;24.30;90.70;;;;;;4225774;28;20097;-61
2023/10/22 10:14:45;;;;;;;2.95;0.43;;;24.40;90.60;;;;;;4226313;28;20028;-61
2023/10/22 10:16:59;;;;;;;1.92;0.70;;;24.50;88.60;;;;;;4226190;28;20031;-61
2023/10/22 10:19:06;;;;;;;3.17;0.70;;;24.50;89.40;;;;;;4227188;28;20085;-58
2023/10/22 10:21:33;;;;;;;1.95;0.68;;;24.60;90.00;;;;;;4226127;28;20056;-60
2023/10/22 10:24:13;;;;;;;2.08;0.60;;;24.70;87.40;;;;;;4226941;28;20085;-59
2023/10/22 10:26:29;;;;;;;3.33;0.53;;;24.70;87.40;;;;;;4226383;28;20055;-60
2023/10/22 10:28:42;;;;;;;4.97;0.75;;;24.70;87.20;;;;;;4227009;28;20069;-61